Date,TemperatureHighF,TemperatureAvgF,TemperatureLowF,DewpointHighF,DewpointAvgF,DewpointLowF,HumidityHigh,HumidityAvg,HumidityLow,PressureMaxIn,PressureMinIn,WindSpeedMaxMPH,WindSpeedAvgMPH,GustSpeedMaxMPH,PrecipitationSumIn
2013-4-1,66.0,46.7,37.2,51.8,35.0,19.3,87,66,43,30.33,30.08,27,8,27,0.00
2013-4-2,48.7,36.9,28.2,24.1,18.6,16.4,63,50,33,30.51,30.33,24,10,24,0.00
2013-4-3,55.0,37.3,0.0,27.6,18.3,-4.2,67,47,31,30.73,30.50,27,14,27,0.00
2013-4-4,54.3,36.2,21.0,24.0,16.0,10.3,66,45,28,30.74,30.38,57,11,57,0.00
2013-4-5,64.8,50.9,35.4,41.3,28.7,19.6,71,45,29,30.41,30.17,27,4,27,0.00
2013-4-6,57.9,46.9,33.6,30.2,24.3,19.0,59,42,30,30.66,30.41,27,10,27,0.00
2013-4-7,72.7,57.9,40.8,45.9,37.0,23.3,59,46,37,30.55,30.26,27,13,27,0.00
2013-4-8,84.4,68.7,50.5,56.0,47.8,40.9,71,49,32,30.41,30.24,27,11,27,0.00
2013-4-9,89.4,76.2,58.8,60.8,54.0,45.4,65,47,37,30.42,30.24,27,14,27,0.00
2013-4-10,95.7,78.8,61.5,64.3,56.5,48.9,65,48,35,30.30,30.09,27,15,27,0.00
2013-4-11,92.5,74.6,57.7,64.7,57.0,49.3,75,56,38,30.24,30.04,27,14,27,0.00
2013-4-12,65.1,57.1,51.3,57.7,51.4,41.3,88,82,69,30.15,29.93,27,5,27,0.69
2013-4-13,71.8,59.6,45.7,45.1,39.2,32.7,75,49,35,30.31,30.14,27,9,27,0.00
2013-4-14,70.5,57.2,40.8,41.8,37.6,31.2,71,50,34,30.50,30.30,27,10,27,0.00
2013-4-15,71.8,61.0,53.2,53.3,47.4,39.8,69,61,52,30.59,30.44,27,12,27,0.00
2013-4-16,79.0,67.2,56.8,61.6,55.3,47.4,79,66,54,30.60,30.41,27,11,27,0.10
2013-4-17,74.3,64.8,57.6,65.6,57.2,53.4,87,77,66,30.56,30.45,27,7,27,0.14
2013-4-18,77.9,67.2,61.0,64.4,57.9,54.6,83,73,59,30.55,30.28,27,13,27,0.00
2013-4-19,79.7,66.9,53.2,65.8,57.6,41.3,82,72,62,30.28,29.91,27,11,27,0.90
2013-4-20,66.9,53.9,43.2,41.3,34.0,26.2,64,48,36,30.70,30.14,26,3,26,0.00
2013-4-21,56.8,46.5,34.3,32.2,28.0,22.6,63,49,36,30.93,30.70,25,2,25,0.00
2013-4-22,59.7,48.1,33.1,40.1,32.6,25.6,77,56,43,30.90,30.71,20,1,20,0.00
2013-4-23,61.9,49.2,36.7,45.5,37.7,28.7,76,65,53,30.74,30.42,6,0,6,0.00
2013-4-24,81.3,60.7,39.4,58.7,48.0,33.4,81,65,44,30.43,30.05,27,4,27,0.08
2013-4-25,74.5,57.6,44.1,44.9,36.9,32.3,66,48,32,30.64,30.40,26,1,26,0.00
2013-4-26,70.0,55.1,40.8,44.5,36.3,30.6,70,51,36,30.80,30.64,8,0,8,0.00
2013-4-27,77.7,59.3,38.1,49.5,40.2,30.5,77,52,35,30.75,30.58,6,0,6,0.00
2013-4-28,66.0,53.3,42.4,48.8,42.5,33.4,83,68,43,30.60,30.46,6,0,6,0.16
2013-4-29,61.9,56.5,51.8,57.0,51.8,46.8,87,84,81,30.46,30.36,4,0,4,0.08
2013-4-30,62.4,57.9,55.0,56.1,53.1,50.6,87,84,78,30.63,30.43,7,0,7,0.02